createdAt,value
2017-12-16T00:00:36.816Z,96699.97
2017-12-16T00:03:05.177Z,96698.40
2017-12-16T00:05:33.839Z,96699.94
2017-12-16T00:08:02.145Z,96698.50
2017-12-16T00:10:30.504Z,96696.85
2017-12-16T00:12:58.946Z,96707.41
2017-12-16T00:15:27.301Z,96701.45
2017-12-16T00:17:55.701Z,96698.11
2017-12-16T00:20:24.086Z,96708.02
2017-12-16T00:22:53.004Z,96710.70
2017-12-16T00:25:21.327Z,96711.97
2017-12-16T00:27:49.652Z,96711.02
2017-12-16T00:30:17.953Z,96713.05
2017-12-16T00:32:46.333Z,96717.43
2017-12-16T00:35:14.686Z,96715.40
2017-12-16T00:37:43.009Z,96717.27
2017-12-16T00:40:11.354Z,96718.30
2017-12-16T00:42:39.672Z,96718.70
2017-12-16T00:45:08.158Z,96717.47
2017-12-16T00:47:36.493Z,96711.02
2017-12-16T00:50:04.817Z,96709.33
2017-12-16T00:52:33.873Z,96717.45
2017-12-16T00:55:02.180Z,96716.44
2017-12-16T00:57:30.504Z,96724.16
2017-12-16T00:59:58.858Z,96735.75
2017-12-16T01:02:27.173Z,96735.69
2017-12-16T01:04:56.559Z,96742.06
2017-12-16T01:07:25.106Z,96741.19
2017-12-16T01:09:53.432Z,96742.41
2017-12-16T01:12:21.744Z,96755.32
2017-12-16T01:14:50.576Z,96752.98
2017-12-16T01:17:19.214Z,96751.68
2017-12-16T01:19:47.546Z,96754.87
2017-12-16T01:22:16.407Z,96753.24
2017-12-16T01:24:44.756Z,96759.44
2017-12-16T01:27:13.573Z,96758.12
2017-12-16T01:32:18.578Z,96778.47
2017-12-16T01:35:04.832Z,96775.25
2017-12-16T01:37:50.765Z,96786.55
2017-12-16T01:40:19.465Z,96792.09
2017-12-16T01:42:47.806Z,96790.30
2017-12-16T01:45:16.173Z,96789.24
2017-12-16T01:47:45.074Z,96793.47
2017-12-16T01:50:13.403Z,96795.42
2017-12-16T01:52:41.737Z,96798.06
2017-12-16T01:55:11.065Z,96804.09
2017-12-16T01:57:39.891Z,96798.38
2017-12-16T02:00:08.969Z,96802.19
2017-12-16T02:02:38.245Z,96804.88
2017-12-16T02:05:07.156Z,96802.11
2017-12-16T02:07:35.585Z,96805.61
2017-12-16T02:10:03.945Z,96806.26
2017-12-16T02:12:33.024Z,96810.09
2017-12-16T02:15:01.337Z,96812.20
2017-12-16T02:17:29.658Z,96807.97
2017-12-16T02:19:57.983Z,96812.59
2017-12-16T02:22:26.319Z,96809.89
2017-12-16T02:24:54.698Z,96815.73
2017-12-16T02:27:23.024Z,96820.94
2017-12-16T02:29:51.377Z,96820.58
2017-12-16T02:32:19.720Z,96821.66
2017-12-16T02:34:48.065Z,96822.42
2017-12-16T02:37:16.548Z,96823.95
2017-12-16T02:39:45.381Z,96821.98
2017-12-16T02:42:14.193Z,96828.17
2017-12-16T02:44:42.570Z,96832.49
2017-12-16T02:47:10.904Z,96840.72
2017-12-16T02:49:39.328Z,96840.83
2017-12-16T02:52:07.602Z,96849.67
2017-12-16T02:54:36.914Z,96844.34
2017-12-16T02:57:05.635Z,96854.84
2017-12-16T02:59:33.956Z,96855.92
2017-12-16T03:02:02.378Z,96863.94
2017-12-16T03:04:30.700Z,96860.64
2017-12-16T03:06:58.999Z,96866.44
2017-12-16T03:09:27.368Z,96865.85
2017-12-16T03:11:56.019Z,96866.59
2017-12-16T03:14:24.635Z,96872.41
2017-12-16T03:16:53.791Z,96876.58
2017-12-16T03:19:22.522Z,96876.94
2017-12-16T03:21:50.898Z,96876.42
2017-12-16T03:24:19.253Z,96883.84
2017-12-16T03:26:47.572Z,96884.35
2017-12-16T03:29:15.892Z,96889.53
2017-12-16T03:31:44.262Z,96882.00
2017-12-16T03:34:13.201Z,96888.33
2017-12-16T03:36:41.512Z,96890.45
2017-12-16T03:39:09.896Z,96894.10
2017-12-16T03:41:38.727Z,96900.50
2017-12-16T03:44:07.057Z,96902.89
2017-12-16T03:46:36.368Z,96902.95
2017-12-16T03:49:04.685Z,96910.09
2017-12-16T03:51:33.047Z,96909.56
2017-12-16T03:54:01.365Z,96912.99
2017-12-16T03:56:29.687Z,96916.88
2017-12-16T03:58:58.083Z,96918.09
2017-12-16T04:01:26.424Z,96919.94
2017-12-16T04:03:54.730Z,96921.95
2017-12-16T04:06:23.105Z,96930.38
2017-12-16T04:08:51.418Z,96933.98
2017-12-16T04:11:20.277Z,96939.88
2017-12-16T04:13:48.671Z,96939.30
2017-12-16T04:16:16.988Z,96940.46
2017-12-16T04:18:45.295Z,96940.98
2017-12-16T04:21:13.664Z,96943.41
2017-12-16T04:23:42.750Z,96947.84
2017-12-16T04:26:12.028Z,96949.67
2017-12-16T04:28:40.375Z,96952.23
2017-12-16T04:31:08.676Z,96953.17
2017-12-16T04:33:36.992Z,96951.72
2017-12-16T04:36:05.803Z,96953.06
2017-12-16T04:38:34.108Z,96959.58
2017-12-16T04:41:02.466Z,96962.48
2017-12-16T04:43:30.909Z,96959.87
2017-12-16T04:45:59.225Z,96962.09
2017-12-16T04:48:27.541Z,96964.12
2017-12-16T04:50:55.875Z,96970.55
2017-12-16T04:53:24.192Z,96965.75
2017-12-16T04:55:53.297Z,96962.30
2017-12-16T04:58:21.839Z,96966.45
2017-12-16T05:00:50.137Z,96973.38
2017-12-16T05:03:18.535Z,96974.47
2017-12-16T05:05:46.860Z,96977.22
2017-12-16T05:08:15.163Z,96985.56
2017-12-16T05:10:43.526Z,96997.00
2017-12-16T05:13:11.829Z,96997.56
2017-12-16T05:15:40.147Z,96995.69
2017-12-16T05:18:08.495Z,96994.59
2017-12-16T05:20:36.808Z,96998.67
2017-12-16T05:23:05.117Z,97004.79
2017-12-16T05:25:33.499Z,97007.15
2017-12-16T05:28:01.808Z,97004.32
2017-12-16T05:30:30.127Z,97013.89
2017-12-16T05:32:58.488Z,97020.93
2017-12-16T05:35:27.622Z,97024.06
2017-12-16T05:37:55.927Z,97022.41
2017-12-16T05:40:24.244Z,97031.52
2017-12-16T05:42:58.068Z,97030.25
2017-12-16T05:45:27.114Z,97035.42
2017-12-16T05:47:55.536Z,97043.67
2017-12-16T05:50:23.844Z,97044.55
2017-12-16T05:52:52.161Z,97050.66
2017-12-16T05:55:20.517Z,97053.41
2017-12-16T05:57:48.823Z,97056.53
2017-12-16T06:00:17.124Z,97061.42
2017-12-16T06:02:45.716Z,97061.49
2017-12-16T06:05:14.549Z,97064.64
2017-12-16T06:07:42.859Z,97068.48
2017-12-16T06:10:12.525Z,97074.28
2017-12-16T06:12:40.970Z,97078.27
2017-12-16T06:15:09.281Z,97078.14
2017-12-16T06:17:37.640Z,97089.51
2017-12-16T06:20:05.949Z,97094.22
2017-12-16T06:22:34.240Z,97090.06
2017-12-16T06:25:02.847Z,97093.20
2017-12-16T06:27:31.923Z,97097.30
2017-12-16T06:30:00.253Z,97098.86
2017-12-16T06:32:28.783Z,97101.81
2017-12-16T06:34:57.110Z,97109.19
2017-12-16T06:37:25.416Z,97112.95
2017-12-16T06:39:53.760Z,97114.30
2017-12-16T06:42:22.067Z,97112.64
2017-12-16T06:44:50.380Z,97123.41
2017-12-16T06:47:18.727Z,97121.31
2017-12-16T06:49:47.050Z,97125.01
2017-12-16T06:52:15.381Z,97125.11
2017-12-16T06:54:43.775Z,97124.89
2017-12-16T06:57:12.082Z,97130.27
2017-12-16T06:59:41.164Z,97130.05
2017-12-16T07:02:09.502Z,97130.91
2017-12-16T07:04:37.814Z,97139.16
2017-12-16T07:07:06.153Z,97150.00
2017-12-16T07:09:34.560Z,97152.06
2017-12-16T07:12:02.882Z,97161.88
2017-12-16T07:14:31.232Z,97169.52
2017-12-16T07:16:59.583Z,97169.61
2017-12-16T07:19:27.884Z,97180.66
2017-12-16T07:21:56.188Z,97189.23
2017-12-16T07:24:24.549Z,97191.47
2017-12-16T07:26:53.615Z,97196.02
2017-12-16T07:29:21.928Z,97200.21
2017-12-16T07:31:51.044Z,97200.83
2017-12-16T07:34:19.349Z,97204.39
2017-12-16T07:36:47.971Z,97210.44
2017-12-16T07:39:16.324Z,97214.22
2017-12-16T07:41:44.636Z,97218.23
2017-12-16T07:44:13.022Z,97222.00
2017-12-16T07:46:41.430Z,97227.97
2017-12-16T07:49:11.082Z,97233.32
2017-12-16T07:51:40.070Z,97233.59
2017-12-16T07:54:09.052Z,97237.56
2017-12-16T07:56:37.768Z,97237.82
2017-12-16T07:59:06.648Z,97247.13
2017-12-16T08:01:35.796Z,97250.89
2017-12-16T08:04:04.572Z,97256.56
2017-12-16T08:06:32.996Z,97259.09
2017-12-16T08:09:01.366Z,97260.77
2017-12-16T08:11:30.316Z,97267.59
2017-12-16T08:13:59.267Z,97268.84
2017-12-16T08:16:27.722Z,97283.16
2017-12-16T08:18:56.056Z,97286.62
2017-12-16T08:21:25.140Z,97291.90
2017-12-16T08:23:54.289Z,97295.84
2017-12-16T08:26:22.652Z,97299.64
2017-12-16T08:28:51.044Z,97307.83
2017-12-16T08:31:19.357Z,97312.03
2017-12-16T08:33:48.056Z,97326.44
2017-12-16T08:36:16.416Z,97324.01
2017-12-16T08:38:44.736Z,97332.97
2017-12-16T08:41:13.060Z,97341.50
2017-12-16T08:43:41.792Z,97351.09
2017-12-16T08:46:10.100Z,97347.98
2017-12-16T08:48:38.411Z,97366.15
2017-12-16T08:51:07.436Z,97367.32
2017-12-16T08:53:35.748Z,97372.95
2017-12-16T08:56:04.052Z,97379.10
2017-12-16T08:58:32.411Z,97387.32
2017-12-16T09:01:00.723Z,97391.72
2017-12-16T09:03:29.043Z,97394.16
2017-12-16T09:05:57.401Z,97395.59
2017-12-16T09:08:26.472Z,97397.30
2017-12-16T09:10:54.779Z,97406.72
2017-12-16T09:13:23.239Z,97413.66
2017-12-16T09:15:51.560Z,97418.00
2017-12-16T09:18:20.093Z,97430.46
2017-12-16T09:20:48.422Z,97430.96
2017-12-16T09:23:16.724Z,97438.51
2017-12-16T09:25:45.095Z,97446.62
2017-12-16T09:28:13.777Z,97448.21
2017-12-16T09:30:42.304Z,97456.70
2017-12-16T09:33:10.653Z,97463.67
2017-12-16T09:35:38.960Z,97479.25
2017-12-16T09:38:07.891Z,97482.64
2017-12-16T09:40:36.239Z,97489.88
2017-12-16T09:43:04.554Z,97491.21
2017-12-16T09:45:32.866Z,97487.50
2017-12-16T09:48:01.926Z,97493.19
2017-12-16T09:50:30.408Z,97496.58
2017-12-16T09:53:01.996Z,97505.41
2017-12-16T09:55:30.697Z,97502.68
2017-12-16T09:57:59.793Z,97515.61
2017-12-16T10:00:29.332Z,97510.66
2017-12-16T10:02:57.645Z,97511.61
2017-12-16T10:05:25.955Z,97512.47
2017-12-16T10:07:54.632Z,97510.48
2017-12-16T10:10:22.935Z,97521.74
2017-12-16T10:12:51.235Z,97529.38
2017-12-16T10:15:19.592Z,97532.41
2017-12-16T10:17:47.902Z,97535.27
2017-12-16T10:20:16.204Z,97528.52
2017-12-16T10:22:44.837Z,97536.45
2017-12-16T10:25:13.152Z,97542.95
2017-12-16T10:27:41.460Z,97542.69
2017-12-16T10:30:09.859Z,97555.27
2017-12-16T10:32:38.932Z,97555.17
2017-12-16T10:35:07.475Z,97560.33
2017-12-16T10:37:35.833Z,97562.84
2017-12-16T10:40:04.155Z,97568.56
2017-12-16T10:42:32.499Z,97564.39
2017-12-16T10:45:00.800Z,97571.98
2017-12-16T10:47:29.811Z,97580.70
2017-12-16T10:49:58.180Z,97585.34
2017-12-16T10:52:26.500Z,97578.19
2017-12-16T10:54:55.072Z,97585.59
2017-12-16T10:57:23.880Z,97584.61
2017-12-16T10:59:52.372Z,97588.73
2017-12-16T11:02:20.791Z,97592.20
2017-12-16T11:04:49.218Z,97586.47
2017-12-16T11:07:17.584Z,97591.46
2017-12-16T11:09:45.907Z,97590.06
2017-12-16T11:12:15.852Z,97598.05
2017-12-16T11:14:44.192Z,97594.41
2017-12-16T11:17:12.554Z,97597.18
2017-12-16T11:19:40.904Z,97599.87
2017-12-16T11:22:09.264Z,97599.52
2017-12-16T11:24:37.600Z,97597.53
2017-12-16T11:27:05.932Z,97599.44
2017-12-16T11:29:34.544Z,97601.95
2017-12-16T11:32:02.861Z,97597.86
2017-12-16T11:34:31.164Z,97604.61
2017-12-16T11:36:59.604Z,97607.73
2017-12-16T11:39:27.973Z,97613.00
2017-12-16T11:41:56.284Z,97616.63
2017-12-16T11:44:24.643Z,97616.16
2017-12-16T11:46:53.131Z,97621.27
2017-12-16T11:49:21.863Z,97614.33
2017-12-16T11:51:50.173Z,97620.30
2017-12-16T11:54:18.532Z,97619.05
2017-12-16T11:56:46.896Z,97621.56
2017-12-16T11:59:15.204Z,97626.60
2017-12-16T12:01:44.031Z,97628.42
2017-12-16T12:04:12.336Z,97636.16
2017-12-16T12:06:40.643Z,97639.83
2017-12-16T12:09:09.112Z,97645.22
2017-12-16T12:11:37.436Z,97642.61
2017-12-16T12:14:05.827Z,97642.73
2017-12-16T12:16:34.277Z,97642.84
2017-12-16T12:19:02.587Z,97647.41
2017-12-16T12:21:31.280Z,97644.73
2017-12-16T12:24:00.251Z,97654.75
2017-12-16T12:26:29.220Z,97651.17
2017-12-16T12:28:57.564Z,97645.48
2017-12-16T12:31:25.939Z,97649.48
2017-12-16T12:33:54.472Z,97656.61
2017-12-16T12:36:22.800Z,97658.18
2017-12-16T12:38:51.164Z,97657.03
2017-12-16T12:41:19.533Z,97654.83
2017-12-16T12:43:47.836Z,97660.64
2017-12-16T12:46:16.136Z,97660.27
2017-12-16T12:48:45.268Z,97659.01
2017-12-16T12:51:13.569Z,97663.25
2017-12-16T12:53:41.880Z,97661.33
2017-12-16T12:56:10.358Z,97656.95
2017-12-16T12:58:38.644Z,97665.59
2017-12-16T13:01:06.948Z,97666.78
2017-12-16T13:03:35.314Z,97663.04
2017-12-16T13:06:03.616Z,97670.57
2017-12-16T13:08:31.924Z,97674.88
2017-12-16T13:11:00.268Z,97671.91
2017-12-16T13:13:28.579Z,97676.36
2017-12-16T13:15:57.672Z,97677.54
2017-12-16T13:18:26.032Z,97676.94
2017-12-16T13:20:54.337Z,97683.56
2017-12-16T13:23:22.639Z,97686.83
2017-12-16T13:25:50.987Z,97683.88
2017-12-16T13:28:19.298Z,97689.75
2017-12-16T13:30:47.595Z,97698.81
2017-12-16T13:33:15.975Z,97703.31
2017-12-16T13:35:44.721Z,97702.67
2017-12-16T13:38:13.956Z,97697.08
2017-12-16T13:40:42.267Z,97707.92
2017-12-16T13:43:10.572Z,97706.48
2017-12-16T13:45:39.703Z,97710.42
2017-12-16T13:48:08.025Z,97715.05
2017-12-16T13:50:36.735Z,97716.16
2017-12-16T13:53:05.100Z,97721.77
2017-12-16T13:55:33.564Z,97724.02
2017-12-16T13:58:01.866Z,97731.50
2017-12-16T14:00:30.988Z,97743.81
2017-12-16T14:02:59.292Z,97746.70
2017-12-16T14:05:27.595Z,97748.03
2017-12-16T14:07:55.942Z,97749.58
2017-12-16T14:10:24.244Z,97752.87
2017-12-16T14:12:52.557Z,97768.00
2017-12-16T14:15:21.733Z,97765.09
2017-12-16T14:17:50.114Z,97771.03
2017-12-16T14:20:18.423Z,97774.21
2017-12-16T14:22:47.523Z,97776.94
2017-12-16T14:25:15.828Z,97782.80
2017-12-16T14:27:44.142Z,97785.27
2017-12-16T14:30:12.479Z,97794.42
2017-12-16T14:32:40.788Z,97796.03
2017-12-16T14:35:09.208Z,97802.25
2017-12-16T14:37:37.530Z,97800.41
2017-12-16T14:40:05.867Z,97807.34
2017-12-16T14:42:34.381Z,97807.19
2017-12-16T14:45:02.700Z,97814.43
2017-12-16T14:47:31.005Z,97813.48
2017-12-16T14:49:59.389Z,97819.72
2017-12-16T14:52:27.699Z,97821.29
2017-12-16T14:54:56.013Z,97832.23
2017-12-16T14:57:24.414Z,97837.68
2017-12-16T14:59:53.500Z,97845.81
2017-12-16T15:02:22.567Z,97846.79
2017-12-16T15:04:50.975Z,97854.08
2017-12-16T15:07:19.259Z,97848.23
2017-12-16T15:09:47.580Z,97856.77
2017-12-16T15:12:16.074Z,97857.30
2017-12-16T15:14:44.434Z,97861.14
2017-12-16T15:17:12.756Z,97866.17
2017-12-16T15:19:41.192Z,97871.97
2017-12-16T15:22:09.541Z,97875.98
2017-12-16T15:24:37.864Z,97875.53
2017-12-16T15:27:06.232Z,97881.85
2017-12-16T15:29:34.545Z,97878.81
2017-12-16T15:32:02.899Z,97889.89
2017-12-16T15:34:31.276Z,97904.70
2017-12-16T15:36:59.589Z,97899.75
2017-12-16T15:39:27.907Z,97898.75
2017-12-16T15:41:56.292Z,97899.49
2017-12-16T15:44:24.595Z,97893.14
2017-12-16T15:46:52.900Z,97912.77
2017-12-16T15:49:21.571Z,97915.20
2017-12-16T15:51:49.886Z,97918.03
2017-12-16T15:54:18.229Z,97926.30
2017-12-16T15:56:47.392Z,97920.35
2017-12-16T15:59:16.420Z,97921.39
2017-12-16T16:01:44.775Z,97927.23
2017-12-16T16:04:13.206Z,97924.30
2017-12-16T16:06:41.541Z,97930.58
2017-12-16T16:09:09.849Z,97931.92
2017-12-16T16:11:38.233Z,97927.84
2017-12-16T16:14:08.293Z,97934.83
2017-12-16T16:16:36.621Z,97940.84
2017-12-16T16:19:05.790Z,97941.11
2017-12-16T16:21:34.196Z,97948.64
2017-12-16T16:24:03.329Z,97947.78
2017-12-16T16:26:31.722Z,97949.58
2017-12-16T16:29:00.136Z,97954.38
2017-12-16T16:31:28.509Z,97957.63
2017-12-16T16:33:56.864Z,97960.66
2017-12-16T16:36:26.242Z,97961.59
2017-12-16T16:38:55.129Z,97965.20
2017-12-16T16:41:24.109Z,97971.25
2017-12-16T16:43:52.928Z,97971.56
2017-12-16T16:46:21.247Z,97970.66
2017-12-16T16:48:49.560Z,97970.97
2017-12-16T16:51:17.938Z,97981.57
2017-12-16T16:53:46.300Z,97990.67
2017-12-16T16:56:14.673Z,97990.59
2017-12-16T16:58:43.048Z,97993.45
2017-12-16T17:01:11.369Z,97989.41
2017-12-16T17:03:39.744Z,97997.73
2017-12-16T17:06:08.145Z,98001.97
2017-12-16T17:08:36.612Z,98011.36
2017-12-16T17:11:05.015Z,98013.92
2017-12-16T17:13:33.708Z,98013.72
2017-12-16T17:16:02.061Z,98016.47
2017-12-16T17:18:30.464Z,98017.02
2017-12-16T17:20:58.780Z,98021.58
2017-12-16T17:23:27.916Z,98026.16
2017-12-16T17:25:56.273Z,98027.68
2017-12-16T17:28:24.590Z,98025.36
2017-12-16T17:30:53.051Z,98032.23
2017-12-16T17:33:21.397Z,98034.22
2017-12-16T17:35:50.511Z,98045.80
2017-12-16T17:38:18.955Z,98044.05
2017-12-16T17:40:48.073Z,98050.34
2017-12-16T17:43:16.492Z,98054.34
2017-12-16T17:45:44.903Z,98052.49
2017-12-16T17:48:13.216Z,98063.30
2017-12-16T17:50:41.619Z,98062.05
2017-12-16T17:53:09.973Z,98059.50
2017-12-16T17:55:38.299Z,98063.06
2017-12-16T17:58:06.652Z,98064.61
2017-12-16T18:00:35.014Z,98065.86
2017-12-16T18:03:03.340Z,98073.39
2017-12-16T18:05:31.704Z,98080.59
2017-12-16T18:08:00.067Z,98081.39
2017-12-16T18:10:28.381Z,98082.84
2017-12-16T18:12:56.760Z,98084.78
2017-12-16T18:15:25.075Z,98090.52
2017-12-16T18:17:53.437Z,98089.59
2017-12-16T18:20:22.595Z,98104.69
2017-12-16T18:22:50.969Z,98100.20
2017-12-16T18:25:19.341Z,98099.90
2017-12-16T18:27:47.722Z,98094.29
2017-12-16T18:30:16.054Z,98100.96
2017-12-16T18:32:45.177Z,98110.27
2017-12-16T18:35:13.548Z,98110.87
2017-12-16T18:37:41.855Z,98114.02
2017-12-16T18:40:10.175Z,98105.23
2017-12-16T18:42:38.698Z,98120.83
2017-12-16T18:45:07.068Z,98125.44
2017-12-16T18:47:35.385Z,98136.55
2017-12-16T18:50:03.788Z,98134.91
2017-12-16T18:52:32.103Z,98136.36
2017-12-16T18:55:00.471Z,98139.25
2017-12-16T18:57:28.828Z,98137.82
2017-12-16T18:59:57.207Z,98140.93
2017-12-16T19:02:26.329Z,98146.38
2017-12-16T19:04:54.846Z,98148.92
2017-12-16T19:07:23.218Z,98152.50
2017-12-16T19:09:52.539Z,98161.91
2017-12-16T19:12:20.947Z,98164.09
2017-12-16T19:14:49.254Z,98166.19
2017-12-16T19:17:17.607Z,98175.22
2017-12-16T19:19:45.972Z,98177.75
2017-12-16T19:22:14.283Z,98176.58
2017-12-16T19:24:42.642Z,98183.45
2017-12-16T19:27:11.072Z,98180.00
2017-12-16T19:29:39.417Z,98180.70
2017-12-16T19:32:07.780Z,98193.21
2017-12-16T19:34:36.196Z,98188.94
2017-12-16T19:37:04.560Z,98195.08
2017-12-16T19:39:32.931Z,98201.89
2017-12-16T19:42:01.304Z,98203.56
2017-12-16T19:44:29.695Z,98213.02
2017-12-16T19:46:58.156Z,98213.30
2017-12-16T19:49:26.471Z,98216.87
2017-12-16T19:51:54.827Z,98213.17
2017-12-16T19:54:23.176Z,98213.24
2017-12-16T19:56:52.305Z,98220.45
2017-12-16T19:59:21.112Z,98220.03
2017-12-16T20:01:49.536Z,98224.34
2017-12-16T20:04:17.900Z,98226.78
2017-12-16T20:06:46.285Z,98233.91
2017-12-16T20:09:14.652Z,98232.84
2017-12-16T20:11:43.056Z,98227.66
2017-12-16T20:14:11.419Z,98227.13
2017-12-16T20:16:40.139Z,98222.75
2017-12-16T20:19:08.837Z,98219.55
2017-12-16T20:21:37.222Z,98221.84
2017-12-16T20:24:05.556Z,98221.43
2017-12-16T20:26:33.976Z,98220.34
2017-12-16T20:29:02.331Z,98221.94
2017-12-16T20:31:31.465Z,98225.96
2017-12-16T20:33:59.919Z,98224.11
2017-12-16T20:36:28.319Z,98228.47
2017-12-16T20:38:56.759Z,98235.19
2017-12-16T20:41:25.155Z,98239.34
2017-12-16T20:43:53.523Z,98227.52
2017-12-16T20:46:21.920Z,98233.13
2017-12-16T20:48:50.390Z,98235.05
2017-12-16T20:51:19.516Z,98232.15
2017-12-16T20:53:47.878Z,98230.29
2017-12-16T20:56:16.180Z,98237.59
2017-12-16T20:58:44.537Z,98240.84
2017-12-16T21:01:13.556Z,98232.47
2017-12-16T21:03:42.188Z,98240.22
2017-12-16T21:06:12.650Z,98245.80
2017-12-16T21:08:41.378Z,98242.28
2017-12-16T21:11:10.235Z,98246.22
2017-12-16T21:13:39.216Z,98244.55
2017-12-16T21:16:07.578Z,98245.98
2017-12-16T21:18:36.432Z,98247.54
2017-12-16T21:21:09.612Z,98249.34
2017-12-16T21:23:38.499Z,98252.91
2017-12-16T21:26:07.039Z,98254.95
2017-12-16T21:28:35.409Z,98260.69
2017-12-16T21:31:03.847Z,98263.63
2017-12-16T21:33:32.210Z,98262.28
2017-12-16T21:36:00.563Z,98264.76
2017-12-16T21:38:28.987Z,98268.84
2017-12-16T21:40:57.390Z,98272.83
2017-12-16T21:43:25.775Z,98273.36
2017-12-16T21:45:54.240Z,98275.16
2017-12-16T21:48:22.591Z,98280.24
2017-12-16T21:50:51.655Z,98282.11
2017-12-16T21:53:20.053Z,98282.50
2017-12-16T21:55:51.392Z,98286.77
2017-12-16T21:58:19.815Z,98296.31
2017-12-16T22:00:49.315Z,98296.23
2017-12-16T22:03:17.777Z,98297.73
2017-12-16T22:05:47.667Z,98295.69
2017-12-16T22:08:16.768Z,98300.89
2017-12-16T22:10:45.675Z,98294.51
2017-12-16T22:13:14.032Z,98300.50
2017-12-16T22:15:42.965Z,98298.21
2017-12-16T22:18:13.139Z,98298.08
2017-12-16T22:20:41.519Z,98296.61
2017-12-16T22:23:09.802Z,98298.59
2017-12-16T22:25:38.751Z,98300.05
2017-12-16T22:28:07.183Z,98301.55
2017-12-16T22:30:36.272Z,98306.96
2017-12-16T22:33:04.695Z,98301.87
2017-12-16T22:35:33.131Z,98301.70
2017-12-16T22:38:01.551Z,98302.20
2017-12-16T22:40:32.475Z,98308.49
2017-12-16T22:43:00.831Z,98304.52
2017-12-16T22:45:29.347Z,98313.34
2017-12-16T22:47:57.764Z,98311.02
2017-12-16T22:50:26.885Z,98309.45
2017-12-16T22:52:55.275Z,98309.06
2017-12-16T22:55:23.688Z,98309.47
2017-12-16T22:57:52.057Z,98312.12
2017-12-16T23:00:20.622Z,98312.67
2017-12-16T23:02:49.011Z,98318.59
2017-12-16T23:05:17.357Z,98316.89
2017-12-16T23:07:45.774Z,98318.97
2017-12-16T23:10:14.155Z,98314.54
2017-12-16T23:12:42.565Z,98322.08
2017-12-16T23:15:10.982Z,98328.17
2017-12-16T23:17:39.342Z,98320.72
2017-12-16T23:20:07.708Z,98324.59
2017-12-16T23:22:36.072Z,98328.78
2017-12-16T23:25:05.203Z,98331.94
2017-12-16T23:27:34.317Z,98329.83
2017-12-16T23:30:03.911Z,98335.42
2017-12-16T23:32:32.275Z,98330.91
2017-12-16T23:35:00.642Z,98337.73
2017-12-16T23:37:29.539Z,98332.41
2017-12-16T23:39:57.934Z,98338.73
2017-12-16T23:42:26.290Z,98329.80
2017-12-16T23:44:54.918Z,98332.32
2017-12-16T23:47:23.482Z,98338.73
2017-12-16T23:49:51.820Z,98342.41
2017-12-16T23:52:20.223Z,98343.63
2017-12-16T23:54:48.535Z,98332.35
2017-12-16T23:57:16.886Z,98343.00
2017-12-16T23:59:46.015Z,98336.08
